NCAR-RAP Real-Time Weather Data

Output produced by METARs form (17 January 2019  22:56 UTC)
found at http://weather.rap.ucar.edu/surface/
 
KFZY 172154Z AUTO 12006KT 10SM OVC100 M07/M17 A3023 RMK AO2 SLP246 T10721167
KFZY 172054Z AUTO 11003KT 10SM BKN110 M07/M16 A3025 RMK AO2 SLP253 T10721161 56023
KFZY 171954Z AUTO VRB03KT 10SM FEW120 M07/M16 A3027 RMK AO2 SLP259 T10721161
KFZY 171854Z AUTO VRB03KT 10SM CLR M08/M17 A3029 RMK AO2 SLP266 T10781167
KFZY 171754Z AUTO 13004KT 10SM CLR M08/M17 A3032 RMK AO2 SLP275 T10831172 11083 21178 58032
KFZY 171554Z AUTO 13005KT 10SM CLR M11/M19 A3039 RMK AO2 SLP302 T11061194
KFZY 171454Z AUTO VRB03KT 10SM CLR M13/M20 A3041 RMK AO2 SLP307 T11281200 53001
KFZY 171354Z AUTO 00000KT 10SM CLR M14/M21 A3041 RMK AO2 SLP307 T11441211
KFZY 171254Z AUTO 00000KT 10SM CLR M16/M22 A3041 RMK AO2 SLP307 T11611217
KFZY 171154Z AUTO 00000KT 10SM CLR M17/M22 A3041 RMK AO2 SLP307 70001 T11721217 11100 21178 53013
KFZY 171054Z AUTO 00000KT 10SM CLR M17/M22 A3039 RMK AO2 SLP301 T11671217
KFZY 170954Z AUTO 00000KT 10SM CLR M16/M21 A3037 RMK AO2 SLP294 T11611211
KFZY 170854Z AUTO 00000KT 10SM FEW031 M16/M20 A3037 RMK AO2 SLP293 T11561200 51007
KFZY 170754Z AUTO 00000KT 10SM FEW030 M13/M21 A3037 RMK AO2 SLP291 T11331211
KFZY 170654Z AUTO 05004KT 10SM OVC036 M12/M21 A3035 RMK AO2 SLP284 T11171206
KFZY 170554Z AUTO 04005KT 10SM OVC035 M10/M19 A3034 RMK AO2 SLP283 T11001194 11044 21100 51020
KFZY 170454Z AUTO 02004KT 10SM OVC034 M09/M18 A3034 RMK AO2 SLP281 T10941178 400171094
KFZY 170354Z AUTO 04007KT 10SM OVC033 M08/M18 A3032 RMK AO2 SLP273 T10831178
KFZY 170254Z AUTO 33009KT 10SM OVC036 M06/M14 A3028 RMK AO2 SLP261 T10611139 51027
KFZY 170154Z AUTO 32011KT 10SM OVC038 M06/M14 A3026 RMK AO2 SLP254 T10611139
KFZY 170054Z AUTO 32009KT 10SM FEW039 M05/M14 A3024 RMK AO2 SLP247 T10501144
KFZY 162354Z AUTO 30014G20KT 10SM CLR M04/M14 A3020 RMK AO2 SLP234 60001 T10441139 10006 21044 53044
KFZY 162254Z AUTO 28015G20KT 10SM FEW037 M03/M13 A3016 RMK AO2 SLP218 T10331128
KFZY 162154Z AUTO 29015G23KT 10SM SCT038 M03/M11 A3011 RMK AO2 PK WND 30034/2102 UPB03E24 SLP203 P0000 T10281111
KFZY 162054Z AUTO 30014G25KT 8SM BKN037 M02/M09 A3007 RMK AO2 PK WND 28027/2038 UPE33 SLP189 P0001 60001 T10171094 52041
KFZY 161954Z AUTO 28015G32KT 3SM UP BKN035 BKN041 M01/M08 A3003 RMK AO2 PK WND 29034/1917 RAB19E25 SLP174 P0000 T10061078
KFZY 161930Z AUTO 28020G32KT 3SM UP BKN033 BKN041 OVC060 M01/M08 A3001 RMK AO2 PK WND 29034/1917 RAB19E25 P0000 T10061078
KFZY 161926Z AUTO 28019G34KT 1 3/4SM UP BKN033 BKN042 OVC060 M01/M08 A3001 RMK AO2 PK WND 29034/1917 VIS 1V5 RAB19E25 P0000 T10061078
KFZY 161915Z AUTO 29016G27KT 6SM UP BKN033 BKN042 OVC060 01/M07 A3000 RMK AO2 PK WND 29034/1904 P0000 T00061067
KFZY 161854Z AUTO 29024G35KT 2SM UP FEW030 SCT035 OVC043 00/M07 A2999 RMK AO2 PK WND 29035/1850 VIS 1V5 UPB30SNE28 SLP160 P0000 T00001067
KFZY 161839Z AUTO 30019G33KT 2 1/2SM UP FEW023 BKN034 OVC043 00/M06 A2998 RMK AO2 PK WND 28033/1831 VIS 1 1/2V5 UPB30SNE28 P0000 T00001061
KFZY 161823Z AUTO 29016G21KT 5SM -SN FEW008 SCT026 OVC033 00/M05 A2997 RMK AO2 P0000 T00001050
KFZY 161813Z AUTO 29013G21KT 2SM -SN SCT009 OVC027 00/M04 A2996 RMK AO2 P0000 T00001039
KFZY 161806Z AUTO 29016KT 2SM -SN FEW005 BKN011 OVC031 00/M03 A2995 RMK AO2 P0000 T00001033
KFZY 161802Z AUTO 29015G21KT 1SM -SN FEW005 BKN011 OVC032 00/M03 A2995 RMK AO2 P0000 T00001028
KFZY 161754Z AUTO 29013G24KT 1/4SM +SN BKN007 OVC010 00/M03 A2995 RMK AO2 PK WND 25036/1720 SNB29 SLP146 P0000 60000 T00001028 10017 21017 53000
KFZY 161746Z AUTO 29018G24KT 1/4SM +SN BKN007 BKN010 OVC027 00/M03 A2995 RMK AO2 PK WND 25036/1720 SNB29 P0000 T00001033
KFZY 161737Z AUTO 30017G31KT 1/2SM SN BKN013 OVC026 00/M03 A2994 RMK AO2 PK WND 25036/1720 SNB29 P0000 T00001033
KFZY 161732Z AUTO 29021G31KT 1SM -SN SCT015 BKN024 OVC039 01/M04 A2994 RMK AO2 PK WND 25036/1720 SNB29 P0000 T00111039
KFZY 161727Z AUTO 27016G36KT 9SM BKN025 BKN032 OVC039 02/M04 A2994 RMK AO2 PK WND 25036/1720 T00171044
KFZY 161717Z AUTO 26020G26KT 10SM SCT027 BKN036 OVC060 02/M05 A2993 RMK AO2 PK WND 27028/1659 T00171050
KFZY 161654Z AUTO 25015G20KT 10SM BKN027 OVC038 02/M05 A2994 RMK AO2 UPB08E11SNE08B11E47 SLP142 P0000 T00171050
KFZY 161631Z AUTO 25013G22KT 5SM -SN BKN027 OVC035 01/M05 A2994 RMK AO2 UPB08E11SNE08B11 P0000 T00111050
KFZY 161554Z AUTO 25013KT 5SM -SN FEW026 BKN034 OVC050 01/M04 A2995 RMK AO2 UPB32E37SNB50 SLP146 P0000 T00111044
KFZY 161545Z AUTO 25013KT 10SM SCT027 BKN034 OVC050 01/M05 A2995 RMK AO2 UPB32E37 P0000 T00111050
KFZY 161531Z AUTO 24014KT 10SM BKN027 BKN037 OVC050 01/M05 A2995 RMK AO2 T00061050
KFZY 161513Z AUTO 24012KT 10SM SCT028 BKN040 OVC050 01/M05 A2995 RMK AO2 T00061050
KFZY 161454Z AUTO 25009KT 10SM FEW022 BKN029 OVC060 00/M05 A2995 RMK AO2 SLP145 60000 T00001050 53008
KFZY 161354Z AUTO 24009KT 9SM SCT023 SCT028 OVC060 M01/M05 A2993 RMK AO2 SNB17E51 SLP141 P0000 T10061050
KFZY 161254Z AUTO 23008KT 10SM OVC022 M01/M06 A2993 RMK AO2 SLP141 T10111061
KFZY 161154Z AUTO 22008KT 10SM OVC019 M02/M06 A2992 RMK AO2 SLP138 I6000 T10171061 11011 21022 55007
KFZY 161054Z AUTO 21008KT 8SM OVC019 M02/M06 A2991 RMK AO2 SLP136 T10221061
KFZY 160954Z AUTO 22014G20KT 5SM HZ BKN018 OVC028 M02/M07 A2992 RMK AO2 PK WND 24026/0856 SLP138 I1000 T10221067
KFZY 160854Z AUTO 24013G26KT 10SM OVC022 M02/M07 A2994 RMK AO2 PK WND 24027/0841 SLP145 T10221072 50002
KFZY 160754Z AUTO 26016G23KT 10SM OVC023 M02/M08 A2996 RMK AO2 SLP151 T10221078
KFZY 160654Z AUTO 23006KT 10SM OVC026 M01/M07 A2994 RMK AO2 SLP142 T10111072
KFZY 160554Z AUTO 21007KT 10SM OVC028 M01/M08 A2994 RMK AO2 SLP142 T10111078 11006 21011 56022
KFZY 160525Z AUTO 21009KT 10SM OVC028 M01/M08 A2994 RMK AO2 T10111078
KFZY 160454Z AUTO 20010KT 10SM OVC032 M01/M08 A2995 RMK AO2 SLP148 T10061078 400001083
KFZY 160435Z AUTO 22006KT 10SM OVC030 M01/M08 A2996 RMK AO2 T10111078
KFZY 160404Z AUTO 19007KT 10SM OVC029 M01/M07 A2997 RMK AO2 T10111072
KFZY 160354Z AUTO 19007KT 10SM OVC031 M01/M07 A2998 RMK AO2 SLP157 T10111067
KFZY 160305Z AUTO 21005KT 9SM OVC030 M01/M07 A3000 RMK AO2 T10111067
KFZY 160254Z AUTO 22007KT 9SM OVC028 M01/M07 A3000 RMK AO2 SLP166 T10061067 58019
KFZY 160154Z AUTO 20006KT 7SM OVC021 M01/M06 A3002 RMK AO2 SLP173 T10111056
KFZY 160054Z AUTO 21007KT 7SM OVC018 M01/M06 A3005 RMK AO2 SLP180 T10111056
KFZY 152354Z AUTO 21008KT 6SM HZ OVC015 M01/M06 A3006 RMK AO2 SLP185 T10111056 10000 21011 58005
KFZY 152254Z AUTO 22007KT 7SM OVC019 M01/M06 A3006 RMK AO2 SLP187 T10061056
KFZY 152154Z AUTO 22010KT 7SM OVC020 M01/M06 A3007 RMK AO2 SLP189 T10061056
KFZY 152054Z AUTO 21006KT 7SM OVC021 M01/M06 A3007 RMK AO2 SLP190 T10061056 58001
KFZY 151954Z AUTO 22006KT 7SM BKN021 OVC030 M01/M06 A3008 RMK AO2 SLP192 T10061056
KFZY 151914Z AUTO 22008KT 8SM BKN027 OVC034 M01/M06 A3008 RMK AO2 T10061056
KFZY 151854Z AUTO 23005KT 8SM FEW027 OVC034 M01/M06 A3008 RMK AO2 SLP191 T10061056
KFZY 151851Z AUTO 22007KT 8SM SCT026 OVC034 M01/M06 A3008 RMK AO2
KFZY 151754Z AUTO 23006KT 8SM BKN024 OVC035 M01/M06 A3009 RMK AO2 SLP196 60000 T10061061 11006 21044 56017
KFZY 151751Z AUTO 23004KT 8SM BKN024 OVC035 M01/M06 A3009 RMK AO2
KFZY 151654Z AUTO 22005KT 9SM OVC037 M01/M07 A3011 RMK AO2 SLP205 T10111072
KFZY 151606Z AUTO 22006KT 8SM BKN030 OVC035 M02/M07 A3013 RMK AO2 T10171072
KFZY 151554Z AUTO 22007KT 7SM FEW020 BKN026 OVC032 M02/M07 A3014 RMK AO2 UPB1458E09 SLP214 P0000 T10221072
KFZY 151454Z AUTO 22007KT 8SM OVC019 M02/M07 A3015 RMK AO2 UPB04E15 SLP218 P0000 60000 T10221072 53005
KFZY 151354Z AUTO 23006KT 5SM HZ OVC019 M03/M07 A3014 RMK AO2 SLP215 T10281072
KFZY 151307Z AUTO 22005KT 7SM BKN022 BKN026 OVC036 M03/M08 A3013 RMK AO2 T10331078
KFZY 151254Z AUTO 22006KT 7SM SCT026 OVC036 M03/M08 A3013 RMK AO2 SLP211 T10331078
KFZY 151154Z AUTO 21005KT 8SM BKN028 OVC036 M04/M08 A3014 RMK AO2 SLP213 T10441083 11044 21072 55002
KFZY 151054Z AUTO 22006KT 7SM BKN022 OVC027 M05/M09 A3013 RMK AO2 SLP211 T10501089
KFZY 150954Z AUTO 20006KT 8SM OVC023 M06/M09 A3013 RMK AO2 SLP211 T10561094
KFZY 150854Z AUTO 17003KT 9SM OVC023 M07/M10 A3014 RMK AO2 SLP215 T10671100 58012
KFZY 150754Z AUTO 16003KT 9SM OVC024 M07/M11 A3017 RMK AO2 SLP222 T10671106
KFZY 150654Z AUTO 17005KT 9SM OVC022 M07/M11 A3017 RMK AO2 SLP226 T10721106
KFZY 150554Z AUTO 00000KT 8SM OVC017 M07/M11 A3018 RMK AO2 SLP227 I6001 T10721106 11072 21128 58008
KFZY 150454Z AUTO 15003KT 7SM OVC017 M08/M11 A3018 RMK AO2 SLP230 T10831111 410501183
KFZY 150354Z AUTO 14003KT 8SM OVC017 M09/M12 A3020 RMK AO2 SLP236 T10941122
KFZY 150254Z AUTO 00000KT 7SM BKN019 M12/M15 A3020 RMK AO2 SLP237 I1000 I3001 T11171150 55005
KFZY 150154Z AUTO 00000KT 7SM CLR M12/M14 A3020 RMK AO2 SLP235 T11171144
KFZY 150054Z AUTO 00000KT 8SM CLR M11/M14 A3021 RMK AO2 SLP239 I1001 T11111139
KFZY 142354Z AUTO 00000KT 10SM CLR M09/M12 A3022 RMK AO2 SLP241 T10891117 11050 21094 56002
KFZY 142335Z AUTO 00000KT 10SM SCT013 M08/M11 A3022 RMK AO2 T10781111
KFZY 142303Z AUTO 00000KT 10SM OVC014 M06/M10 A3022 RMK AO2 T10611100
KFZY 142254Z AUTO 00000KT 10SM OVC015 M06/M10 A3022 RMK AO2 SLP242 T10611100
KFZY 142154Z AUTO 00000KT 10SM OVC015 M06/M10 A3022 RMK AO2 SLP241 T10561100
KFZY 142054Z AUTO 00000KT 10SM OVC015 M06/M10 A3022 RMK AO2 SLP244 T10561100 57016
KFZY 142018Z AUTO 00000KT 10SM OVC015 M05/M09 A3023 RMK AO2 T10501094
KFZY 141954Z AUTO 00000KT 10SM OVC014 M05/M09 A3024 RMK AO2 SLP251 T10501094
KFZY 141854Z AUTO 17003KT 10SM OVC011 M06/M10 A3025 RMK AO2 SLP255 T10561100
KFZY 141754Z AUTO 14003KT 10SM OVC010 M07/M11 A3027 RMK AO2 SLP261 T10671106 11067 21111 58022
KFZY 141654Z AUTO 15003KT 9SM OVC011 M08/M11 A3029 RMK AO2 SLP269 T10781106
KFZY 141554Z AUTO 15003KT 8SM OVC011 M09/M11 A3033 RMK AO2 SLP280 T10891111
KFZY 141454Z AUTO 13004KT 8SM OVC011 M09/M12 A3034 RMK AO2 SLP283 T10941122 50001
KFZY 141354Z AUTO 00000KT 8SM OVC011 M10/M13 A3034 RMK AO2 SLP284 T11001128
KFZY 141254Z AUTO 00000KT 8SM OVC010 M11/M13 A3033 RMK AO2 SLP282 T11061133
KFZY 141243Z AUTO 00000KT 9SM OVC010 M11/M13 A3033 RMK AO2 T11061133
KFZY 141154Z AUTO 00000KT 10SM OVC009 M12/M14 A3033 RMK AO2 SLP282 T11171144 11117 21183 55004
KFZY 141054Z AUTO 00000KT 10SM OVC008 M12/M15 A3032 RMK AO2 SLP279 T11221150
KFZY 140954Z AUTO 00000KT 10SM OVC007 M13/M16 A3033 RMK AO2 SLP282 T11331161
KFZY 140934Z AUTO 13003KT 10SM OVC006 M14/M17 A3034 RMK AO2 T11391167
KFZY 140914Z AUTO 00000KT 10SM OVC005 M14/M17 A3034 RMK AO2 T11391172
KFZY 140854Z AUTO 00000KT 10SM OVC004 M15/M18 A3034 RMK AO2 SLP286 T11501183 58007
KFZY 140838Z AUTO 00000KT 10SM OVC004 M16/M19 A3034 RMK AO2 T11611189
KFZY 140826Z AUTO 00000KT 10SM BKN005 M17/M20 A3035 RMK AO2 T11671200
KFZY 140818Z AUTO 00000KT 10SM SCT005 M16/M19 A3035 RMK AO2 T11611194
KFZY 140754Z AUTO 00000KT 10SM CLR M18/M21 A3035 RMK AO2 SLP288 T11781211
KFZY 140654Z AUTO 00000KT 6SM HZ CLR M18/M22 A3036 RMK AO2 SLP292 T11781217
KFZY 140554Z AUTO 00000KT 7SM CLR M17/M21 A3036 RMK AO2 SLP292 I6000 T11671206 11117 21172 58010
KFZY 140454Z AUTO 00000KT 10SM CLR M17/M20 A3038 RMK AO2 SLP297 I1000 T11671200 410501183
KFZY 140354Z AUTO 00000KT 10SM CLR M16/M19 A3040 RMK AO2 SLP305 I1000 T11611189
KFZY 140254Z AUTO 00000KT 10SM CLR M14/M17 A3039 RMK AO2 SLP303 I1000 I3000 T11441172 55003
KFZY 140154Z AUTO 00000KT 10SM CLR M12/M16 A3039 RMK AO2 SLP302 I1000 T11221156
KFZY 140054Z AUTO 35004KT 10SM CLR M12/M16 A3040 RMK AO2 SLP305 I1000 T11171156
KFZY 132354Z AUTO 35003KT 10SM CLR M12/M16 A3040 RMK AO2 SLP307 T11221161 11050 21128 55003
KFZY 132254Z AUTO 34003KT 10SM CLR M11/M16 A3040 RMK AO2 SLP307 T11061156
KFZY 132154Z AUTO 36006KT 10SM CLR M09/M15 A3041 RMK AO2 SLP307 T10891150
KFZY 132054Z AUTO 35006KT 10SM CLR M07/M15 A3041 RMK AO2 SLP309 T10671150 56007
KFZY 131954Z AUTO 36003KT 10SM CLR M06/M16 A3041 RMK AO2 SLP309 T10561161